createdAt,value
2023-01-09T00:01:16.803Z,6.70
2023-01-09T00:03:44.543Z,7.50
2023-01-09T00:06:12.848Z,8.77
2023-01-09T00:08:40.557Z,9.23
2023-01-09T00:11:09.038Z,7.77
2023-01-09T00:13:37.390Z,8.20
2023-01-09T00:16:07.424Z,14.53
2023-01-09T00:18:35.651Z,8.77
2023-01-09T00:21:04.706Z,9.33
2023-01-09T00:23:32.370Z,8.97
2023-01-09T00:26:05.514Z,9.23
2023-01-09T00:28:33.834Z,8.07
2023-01-09T00:31:03.380Z,8.47
2023-01-09T00:33:34.725Z,8.10
2023-01-09T00:36:03.267Z,8.17
2023-01-09T00:38:31.120Z,8.30
2023-01-09T00:41:00.203Z,9.67
2023-01-09T00:43:31.650Z,8.53
2023-01-09T00:46:01.056Z,9.37
2023-01-09T00:48:30.224Z,10.70
2023-01-09T00:51:00.669Z,8.23
2023-01-09T00:53:32.670Z,7.67
2023-01-09T00:56:06.323Z,9.20
2023-01-09T00:58:36.170Z,7.70
2023-01-09T01:01:04.323Z,6.90
2023-01-09T01:03:33.031Z,9.17
2023-01-09T01:06:19.812Z,8.73
2023-01-09T01:08:47.665Z,8.30
2023-01-09T01:11:15.773Z,6.47
2023-01-09T01:13:44.243Z,6.60
2023-01-09T01:16:13.852Z,7.27
2023-01-09T01:18:42.963Z,6.97
2023-01-09T01:21:13.985Z,5.67
2023-01-09T01:23:42.614Z,4.40
2023-01-09T01:26:12.153Z,7.33
2023-01-09T01:28:40.421Z,5.90
2023-01-09T01:31:08.262Z,4.47
2023-01-09T01:33:36.478Z,5.03
2023-01-09T01:36:07.205Z,4.53
2023-01-09T01:38:37.208Z,5.67
2023-01-09T01:41:06.937Z,3.87
2023-01-09T01:43:51.101Z,3.80
2023-01-09T01:46:18.921Z,4.77
2023-01-09T01:48:47.892Z,2.77
2023-01-09T01:51:16.957Z,3.70
2023-01-09T01:53:50.719Z,3.43
2023-01-09T01:56:21.391Z,3.37
2023-01-09T01:58:53.136Z,4.23
2023-01-09T02:01:23.343Z,3.03
2023-01-09T02:03:53.742Z,2.63
2023-01-09T02:06:21.604Z,2.60
2023-01-09T02:08:51.511Z,3.03
2023-01-09T02:11:21.784Z,3.40
2023-01-09T02:13:50.534Z,3.37
2023-01-09T02:16:37.946Z,2.77
2023-01-09T02:19:15.812Z,2.30
2023-01-09T02:22:01.365Z,2.30
2023-01-09T02:24:58.489Z,2.23
2023-01-09T02:27:54.384Z,2.00
2023-01-09T02:30:45.549Z,2.67
2023-01-09T02:33:25.788Z,2.40
2023-01-09T02:36:09.602Z,2.07
2023-01-09T02:38:49.210Z,2.73
2023-01-09T02:41:22.437Z,2.33
2023-01-09T02:44:18.101Z,3.67
2023-01-09T02:46:47.293Z,2.80
2023-01-09T02:49:17.726Z,2.77
2023-01-09T02:51:52.597Z,3.87
2023-01-09T02:54:32.878Z,3.10
2023-01-09T02:57:18.760Z,2.30
2023-01-09T03:00:02.792Z,2.40
2023-01-09T03:02:46.648Z,1.57
2023-01-09T03:05:22.527Z,2.57
2023-01-09T03:07:57.955Z,1.30
2023-01-09T03:10:31.577Z,1.50
2023-01-09T03:13:03.024Z,1.93
2023-01-09T03:15:34.511Z,1.30
2023-01-09T03:18:06.786Z,1.73
2023-01-09T03:20:35.105Z,1.60
2023-01-09T03:23:05.874Z,3.07
2023-01-09T03:25:34.021Z,2.00
2023-01-09T03:28:03.959Z,1.83
2023-01-09T03:30:33.281Z,1.57
2023-01-09T03:33:01.731Z,1.73
2023-01-09T03:35:31.517Z,1.13
2023-01-09T03:37:59.986Z,1.13
2023-01-09T03:40:27.924Z,0.77
2023-01-09T03:42:55.575Z,0.63
2023-01-09T03:45:23.766Z,1.23
2023-01-09T03:47:53.053Z,0.87
2023-01-09T03:50:21.463Z,0.77
2023-01-09T03:52:50.540Z,1.33
2023-01-09T03:55:18.561Z,0.97
2023-01-09T03:57:46.287Z,0.10
2023-01-09T04:00:15.129Z,0.33
2023-01-09T04:02:43.159Z,0.43
2023-01-09T04:05:11.092Z,0.10
2023-01-09T04:07:38.957Z,0.20
2023-01-09T04:10:09.867Z,0.30
2023-01-09T04:12:37.573Z,0.77
2023-01-09T04:15:06.022Z,0.33
2023-01-09T04:17:33.711Z,0.47
2023-01-09T04:20:02.121Z,0.40
2023-01-09T04:22:31.317Z,0.77
2023-01-09T04:24:59.271Z,0.43
2023-01-09T04:27:28.339Z,0.30
2023-01-09T04:29:56.368Z,0.80
2023-01-09T04:32:24.175Z,0.30
2023-01-09T04:34:52.493Z,0.30
2023-01-09T04:37:20.343Z,0.33
2023-01-09T04:39:48.735Z,0.30
2023-01-09T04:42:16.679Z,0.73
2023-01-09T04:44:46.193Z,0.47
2023-01-09T04:47:14.452Z,0.23
2023-01-09T04:49:42.790Z,0.30
2023-01-09T04:52:10.449Z,0.40
2023-01-09T04:54:39.723Z,0.50
2023-01-09T04:57:07.671Z,0.40
2023-01-09T04:59:35.718Z,0.30
2023-01-09T05:02:06.003Z,0.70
2023-01-09T05:04:34.526Z,0.37
2023-01-09T05:07:02.188Z,0.20
2023-01-09T05:09:30.419Z,0.10
2023-01-09T05:12:00.536Z,0.10
2023-01-09T05:14:29.367Z,0.10
2023-01-09T05:16:57.546Z,0.00
2023-01-09T05:19:26.829Z,0.10
2023-01-09T05:21:55.584Z,0.10
2023-01-09T05:24:23.234Z,0.10
2023-01-09T05:26:51.549Z,0.00
2023-01-09T05:29:19.231Z,0.30
2023-01-09T05:31:48.016Z,0.10
2023-01-09T05:34:15.726Z,0.00
2023-01-09T05:36:45.531Z,0.10
2023-01-09T05:39:13.457Z,0.87
2023-01-09T05:41:42.360Z,0.00
2023-01-09T05:44:10.018Z,0.00
2023-01-09T05:46:37.712Z,0.00
2023-01-09T05:49:05.457Z,0.00
2023-01-09T05:51:33.171Z,0.00
2023-01-09T05:54:02.869Z,3.03
2023-01-09T05:56:30.810Z,0.10
2023-01-09T05:58:58.510Z,0.83
2023-01-09T06:01:26.659Z,0.00
2023-01-09T06:03:54.407Z,0.00
2023-01-09T06:06:24.260Z,0.07
2023-01-09T06:08:52.001Z,0.10
2023-01-09T06:11:21.155Z,0.20
2023-01-09T06:13:49.453Z,0.00
2023-01-09T06:16:17.634Z,0.20
2023-01-09T06:18:45.347Z,0.00
2023-01-09T06:21:13.147Z,0.10
2023-01-09T06:23:40.836Z,0.10
2023-01-09T06:26:08.918Z,0.10
2023-01-09T06:28:37.902Z,0.03
2023-01-09T06:31:06.051Z,0.10
2023-01-09T06:33:33.878Z,0.10
2023-01-09T06:36:01.807Z,0.10
2023-01-09T06:38:29.461Z,0.00
2023-01-09T06:40:57.199Z,0.00
2023-01-09T06:43:24.859Z,0.00
2023-01-09T06:45:54.487Z,0.00
2023-01-09T06:48:22.266Z,0.20
2023-01-09T06:50:49.892Z,0.00
2023-01-09T06:53:17.851Z,1.00
2023-01-09T06:55:45.676Z,0.63
2023-01-09T06:58:14.223Z,0.00
2023-01-09T07:00:41.985Z,0.00
2023-01-09T07:03:11.840Z,0.00
2023-01-09T07:05:41.400Z,0.10
2023-01-09T07:08:10.551Z,0.00
2023-01-09T07:10:38.228Z,0.00
2023-01-09T07:13:06.234Z,0.10
2023-01-09T07:15:33.888Z,0.00
2023-01-09T07:18:01.910Z,0.10
2023-01-09T07:20:30.959Z,0.00
2023-01-09T07:22:58.960Z,0.00
2023-01-09T07:25:26.920Z,0.00
2023-01-09T07:27:54.576Z,2.43
2023-01-09T07:30:22.233Z,0.20
2023-01-09T07:32:50.260Z,0.00
2023-01-09T07:35:18.131Z,0.00
2023-01-09T07:37:47.771Z,0.00
2023-01-09T07:40:15.531Z,0.10
2023-01-09T07:42:43.275Z,0.00
2023-01-09T07:45:11.966Z,0.00
2023-01-09T07:47:40.669Z,0.10
2023-01-09T07:50:10.013Z,0.23
2023-01-09T07:52:38.694Z,0.10
2023-01-09T07:55:09.736Z,0.20
2023-01-09T07:57:37.716Z,0.10
2023-01-09T08:00:06.951Z,0.30
2023-01-09T08:02:40.648Z,0.30
2023-01-09T08:05:13.631Z,2.97
2023-01-09T08:07:42.073Z,0.20
2023-01-09T08:10:11.973Z,0.20
2023-01-09T08:12:44.505Z,0.13
2023-01-09T08:15:12.813Z,0.20
2023-01-09T08:17:43.075Z,0.10
2023-01-09T08:20:12.174Z,0.40
2023-01-09T08:22:40.505Z,0.17
2023-01-09T08:25:11.954Z,0.10
2023-01-09T08:27:41.969Z,0.07
2023-01-09T08:30:10.863Z,0.00
2023-01-09T08:32:38.611Z,0.10
2023-01-09T08:35:07.474Z,0.10
2023-01-09T08:37:35.519Z,0.30
2023-01-09T08:40:03.470Z,0.20
2023-01-09T08:42:48.707Z,0.00
2023-01-09T08:45:35.140Z,1.50
2023-01-09T08:48:02.816Z,0.50
2023-01-09T08:50:30.480Z,0.10
2023-01-09T08:52:58.450Z,0.10
2023-01-09T08:55:26.431Z,1.70
2023-01-09T08:57:55.664Z,0.10
2023-01-09T09:00:25.968Z,0.10
2023-01-09T09:02:55.065Z,0.63
2023-01-09T09:05:24.401Z,0.20
2023-01-09T09:07:53.915Z,0.30
2023-01-09T09:10:23.451Z,0.13
2023-01-09T09:12:52.499Z,0.10
2023-01-09T09:15:24.308Z,2.23
2023-01-09T09:17:55.195Z,3.23
2023-01-09T09:20:23.383Z,0.43
2023-01-09T09:22:51.461Z,2.83
2023-01-09T09:25:20.173Z,0.50
2023-01-09T09:27:48.372Z,0.33
2023-01-09T09:30:19.030Z,1.13
2023-01-09T09:32:47.473Z,0.40
2023-01-09T09:35:19.142Z,1.53
2023-01-09T09:37:54.313Z,0.53
2023-01-09T09:40:44.487Z,0.63
2023-01-09T09:43:58.330Z,0.73
2023-01-09T09:46:38.738Z,3.73
2023-01-09T09:49:14.261Z,5.10
2023-01-09T09:51:56.949Z,0.07
2023-01-09T09:54:28.471Z,2.37
2023-01-09T09:56:59.055Z,2.10
2023-01-09T09:59:30.977Z,0.87
2023-01-09T10:02:01.479Z,0.37
2023-01-09T10:04:33.452Z,0.60
2023-01-09T10:07:06.116Z,0.77
2023-01-09T10:09:46.874Z,2.00
2023-01-09T10:12:27.097Z,3.40
2023-01-09T10:14:55.999Z,0.73
2023-01-09T10:17:44.482Z,0.33
2023-01-09T10:20:38.553Z,0.20
2023-01-09T10:23:21.360Z,0.30
2023-01-09T10:25:57.331Z,2.13
2023-01-09T10:28:49.786Z,0.57
2023-01-09T10:31:23.309Z,2.37
2023-01-09T10:33:59.169Z,1.93
2023-01-09T10:37:05.596Z,0.40
2023-01-09T10:39:40.985Z,0.53
2023-01-09T10:42:21.494Z,0.20
2023-01-09T10:44:55.256Z,2.73
2023-01-09T10:47:27.026Z,2.50
2023-01-09T10:49:56.863Z,0.53
2023-01-09T10:52:31.046Z,2.00
2023-01-09T10:55:05.000Z,0.40
2023-01-09T10:57:42.401Z,0.30
2023-01-09T11:00:18.115Z,0.30
2023-01-09T11:05:36.757Z,1.07
2023-01-09T11:08:12.874Z,0.40
2023-01-09T11:10:50.567Z,2.63
2023-01-09T11:13:22.501Z,0.10
2023-01-09T11:16:05.788Z,5.30
2023-01-09T11:18:34.783Z,2.30
2023-01-09T11:21:29.213Z,2.23
2023-01-09T11:23:58.792Z,3.97
2023-01-09T11:26:29.505Z,0.47
2023-01-09T11:29:08.922Z,0.20
2023-01-09T11:31:36.830Z,3.83
2023-01-09T11:34:05.380Z,0.30
2023-01-09T11:36:33.387Z,0.10
2023-01-09T11:39:02.694Z,0.67
2023-01-09T11:41:34.856Z,0.93
2023-01-09T11:44:05.233Z,0.63
2023-01-09T11:46:38.452Z,0.20
2023-01-09T11:49:22.603Z,0.60
2023-01-09T11:52:14.591Z,1.23
2023-01-09T11:54:46.343Z,4.40
2023-01-09T11:57:15.448Z,0.43
2023-01-09T11:59:43.494Z,0.60
2023-01-09T12:02:39.563Z,0.63
2023-01-09T12:05:17.572Z,0.70
2023-01-09T12:08:02.983Z,0.40
2023-01-09T12:10:45.959Z,0.47
2023-01-09T12:13:30.733Z,0.33
2023-01-09T12:16:06.481Z,0.43
2023-01-09T12:18:51.043Z,0.43
2023-01-09T12:21:32.188Z,2.33
2023-01-09T12:24:45.193Z,1.17
2023-01-09T12:27:25.146Z,0.40
2023-01-09T12:30:19.825Z,0.10
2023-01-09T12:33:01.626Z,2.50
2023-01-09T12:35:36.904Z,0.73
2023-01-09T12:38:21.723Z,1.03
2023-01-09T12:41:24.940Z,0.93
2023-01-09T12:44:27.361Z,0.40
2023-01-09T12:47:15.787Z,0.10
2023-01-09T12:49:53.168Z,0.83
2023-01-09T12:52:26.285Z,0.50
2023-01-09T12:54:58.264Z,1.90
2023-01-09T12:57:31.563Z,2.57
2023-01-09T13:00:03.826Z,3.13
2023-01-09T13:02:37.488Z,0.27
2023-01-09T13:05:11.832Z,0.30
2023-01-09T13:07:43.336Z,0.50
2023-01-09T13:10:23.433Z,1.80
2023-01-09T13:12:52.481Z,0.63
2023-01-09T13:15:28.772Z,0.30
2023-01-09T13:18:05.111Z,0.00
2023-01-09T13:20:39.007Z,2.23
2023-01-09T13:23:07.918Z,2.07
2023-01-09T13:25:43.343Z,4.17
2023-01-09T13:28:18.754Z,0.37
2023-01-09T13:31:20.796Z,0.13
2023-01-09T13:33:52.947Z,0.63
2023-01-09T13:36:27.573Z,0.50
2023-01-09T13:38:57.517Z,0.30
2023-01-09T13:41:45.860Z,0.60
2023-01-09T13:44:28.588Z,3.73
2023-01-09T13:46:58.955Z,0.83
2023-01-09T13:50:15.119Z,0.20
2023-01-09T13:52:45.176Z,1.43
2023-01-09T13:55:36.259Z,1.13
2023-01-09T13:58:25.251Z,0.40
2023-01-09T14:00:59.053Z,0.27
2023-01-09T14:03:32.629Z,0.30
2023-01-09T14:06:12.806Z,0.67
2023-01-09T14:08:42.937Z,0.20
2023-01-09T14:11:19.729Z,2.87
2023-01-09T14:13:53.085Z,0.30
2023-01-09T14:16:24.874Z,1.60
2023-01-09T14:18:54.571Z,0.90
2023-01-09T14:21:22.756Z,0.40
2023-01-09T14:24:01.273Z,0.33
2023-01-09T14:26:45.280Z,0.63
2023-01-09T14:29:43.535Z,0.33
2023-01-09T14:32:46.342Z,0.90
2023-01-09T14:35:21.009Z,0.30
2023-01-09T14:38:00.679Z,1.03
2023-01-09T14:40:31.753Z,0.20
2023-01-09T14:43:09.505Z,0.17
2023-01-09T14:45:40.345Z,0.23
2023-01-09T14:48:13.059Z,0.20
2023-01-09T14:50:45.913Z,0.33
2023-01-09T14:53:18.094Z,0.93
2023-01-09T14:55:52.588Z,2.33
2023-01-09T14:58:24.738Z,0.10
2023-01-09T15:00:58.227Z,0.10
2023-01-09T15:03:29.251Z,0.00
2023-01-09T15:05:58.331Z,1.90
2023-01-09T15:08:28.731Z,0.10
2023-01-09T15:11:00.227Z,0.03
2023-01-09T15:13:32.389Z,0.03
2023-01-09T15:16:01.824Z,0.23
2023-01-09T15:18:33.179Z,2.23
2023-01-09T15:21:04.131Z,1.03
2023-01-09T15:23:32.416Z,0.10
2023-01-09T15:26:23.947Z,2.00
2023-01-09T15:28:53.127Z,0.00
2023-01-09T15:31:24.949Z,2.53
2023-01-09T15:33:54.101Z,0.10
2023-01-09T15:36:25.966Z,0.30
2023-01-09T15:38:55.066Z,2.17
2023-01-09T15:41:45.761Z,0.37
2023-01-09T15:44:17.342Z,0.17
2023-01-09T15:46:50.293Z,1.10
2023-01-09T15:49:19.017Z,0.20
2023-01-09T15:51:48.371Z,0.27
2023-01-09T15:54:18.050Z,0.07
2023-01-09T15:56:48.068Z,0.87
2023-01-09T15:59:27.134Z,0.33
2023-01-09T16:02:15.888Z,0.63
2023-01-09T16:04:43.698Z,2.53
2023-01-09T16:07:16.059Z,0.30
2023-01-09T16:09:47.470Z,0.43
2023-01-09T16:12:21.234Z,0.53
2023-01-09T16:14:52.574Z,0.47
2023-01-09T16:17:23.864Z,2.03
2023-01-09T16:19:53.792Z,0.10
2023-01-09T16:22:24.435Z,0.30
2023-01-09T16:24:54.417Z,1.70
2023-01-09T16:27:26.610Z,1.63
2023-01-09T16:29:57.950Z,3.70
2023-01-09T16:32:29.693Z,3.43
2023-01-09T16:34:59.960Z,0.17
2023-01-09T16:37:29.009Z,1.23
2023-01-09T16:40:32.029Z,0.27
2023-01-09T16:43:01.370Z,1.20
2023-01-09T16:45:31.988Z,0.60
2023-01-09T16:48:00.529Z,0.30
2023-01-09T16:50:28.383Z,0.43
2023-01-09T16:52:57.224Z,4.03
2023-01-09T16:55:24.869Z,0.43
2023-01-09T16:57:52.600Z,0.10
2023-01-09T17:00:22.550Z,2.13
2023-01-09T17:02:50.574Z,0.67
2023-01-09T17:05:18.220Z,0.30
2023-01-09T17:07:46.736Z,2.73
2023-01-09T17:10:21.203Z,0.20
2023-01-09T17:12:49.724Z,3.13
2023-01-09T17:15:17.864Z,0.37
2023-01-09T17:17:48.034Z,0.50
2023-01-09T17:20:18.013Z,0.97
2023-01-09T17:22:46.488Z,2.73
2023-01-09T17:25:33.462Z,0.20
2023-01-09T17:28:19.552Z,0.57
2023-01-09T17:30:47.360Z,3.27
2023-01-09T17:33:19.639Z,0.30
2023-01-09T17:35:47.431Z,2.23
2023-01-09T17:38:16.315Z,1.30
2023-01-09T17:40:45.116Z,0.97
2023-01-09T17:43:13.282Z,0.97
2023-01-09T17:45:42.492Z,0.50
2023-01-09T17:48:20.869Z,0.53
2023-01-09T17:50:49.921Z,1.87
2023-01-09T17:53:20.936Z,0.70
2023-01-09T17:55:48.986Z,2.13
2023-01-09T17:58:25.867Z,0.20
2023-01-09T18:00:53.828Z,0.70
2023-01-09T18:03:24.351Z,0.87
2023-01-09T18:05:52.360Z,0.20
2023-01-09T18:08:20.903Z,0.43
2023-01-09T18:10:49.108Z,0.63
2023-01-09T18:13:18.028Z,2.90
2023-01-09T18:15:46.441Z,0.20
2023-01-09T18:18:16.946Z,0.40
2023-01-09T18:20:46.474Z,1.87
2023-01-09T18:23:16.734Z,0.57
2023-01-09T18:25:44.607Z,1.30
2023-01-09T18:28:15.456Z,2.03
2023-01-09T18:30:45.105Z,1.43
2023-01-09T18:33:14.059Z,0.93
2023-01-09T18:35:41.964Z,4.13
2023-01-09T18:38:12.206Z,2.80
2023-01-09T18:40:41.579Z,0.93
2023-01-09T18:43:11.607Z,0.97
2023-01-09T18:45:39.832Z,0.60
2023-01-09T18:48:08.441Z,0.83
2023-01-09T18:50:36.071Z,1.17
2023-01-09T18:53:04.085Z,1.17
2023-01-09T18:55:33.499Z,1.30
2023-01-09T18:58:01.290Z,2.93
2023-01-09T19:00:29.210Z,0.43
2023-01-09T19:02:56.954Z,0.50
2023-01-09T19:05:25.689Z,0.90
2023-01-09T19:07:54.022Z,0.70
2023-01-09T19:10:22.063Z,0.60
2023-01-09T19:12:51.038Z,1.07
2023-01-09T19:15:19.064Z,0.57
2023-01-09T19:17:46.904Z,0.60
2023-01-09T19:20:14.889Z,0.40
2023-01-09T19:22:42.561Z,0.93
2023-01-09T19:25:12.412Z,0.57
2023-01-09T19:27:40.089Z,3.83
2023-01-09T19:30:11.272Z,1.87
2023-01-09T19:32:40.552Z,1.30
2023-01-09T19:35:08.940Z,0.60
2023-01-09T19:37:37.233Z,1.60
2023-01-09T19:40:05.881Z,2.37
2023-01-09T19:42:33.541Z,2.20
2023-01-09T19:45:01.200Z,0.97
2023-01-09T19:47:35.425Z,0.50
2023-01-09T19:50:04.982Z,0.90
2023-01-09T19:52:33.088Z,1.20
2023-01-09T19:55:00.927Z,0.60
2023-01-09T19:57:28.576Z,2.03
2023-01-09T19:59:56.605Z,0.30
2023-01-09T20:02:24.449Z,0.50
2023-01-09T20:04:53.461Z,0.33
2023-01-09T20:07:21.256Z,0.30
2023-01-09T20:09:49.836Z,0.10
2023-01-09T20:12:17.469Z,1.27
2023-01-09T20:14:45.260Z,0.10
2023-01-09T20:17:12.940Z,0.40
2023-01-09T20:19:40.594Z,0.37
2023-01-09T20:22:09.888Z,1.50
2023-01-09T20:24:39.008Z,2.03
2023-01-09T20:27:06.961Z,0.63
2023-01-09T20:29:34.929Z,0.27
2023-01-09T20:32:05.514Z,0.20
2023-01-09T20:34:33.736Z,5.47
2023-01-09T20:37:01.537Z,0.43
2023-01-09T20:39:31.008Z,0.47
2023-01-09T20:41:58.690Z,0.30
2023-01-09T20:44:26.392Z,0.30
2023-01-09T20:46:54.017Z,2.83
2023-01-09T20:49:22.383Z,0.73
2023-01-09T20:51:52.259Z,0.40
2023-01-09T20:54:22.224Z,0.30
2023-01-09T20:56:53.627Z,1.07
2023-01-09T20:59:22.249Z,0.77
2023-01-09T21:01:50.392Z,0.43
2023-01-09T21:04:19.511Z,3.03
2023-01-09T21:06:49.755Z,0.60
2023-01-09T21:09:17.786Z,0.40
2023-01-09T21:11:45.471Z,0.90
2023-01-09T21:14:14.980Z,0.70
2023-01-09T21:16:45.460Z,0.47
2023-01-09T21:19:19.539Z,0.33
2023-01-09T21:21:47.350Z,0.97
2023-01-09T21:24:14.993Z,1.67
2023-01-09T21:26:43.374Z,0.43
2023-01-09T21:29:15.482Z,0.70
2023-01-09T21:31:44.361Z,0.80
2023-01-09T21:34:14.563Z,0.40
2023-01-09T21:36:45.307Z,0.80
2023-01-09T21:39:13.004Z,0.47
2023-01-09T21:41:58.575Z,0.90
2023-01-09T21:44:45.421Z,0.83
2023-01-09T21:47:13.081Z,0.40
2023-01-09T21:49:41.743Z,0.50
2023-01-09T21:52:10.825Z,2.13
2023-01-09T21:54:38.587Z,0.87
2023-01-09T21:57:06.537Z,0.47
2023-01-09T21:59:35.565Z,1.47
2023-01-09T22:02:03.277Z,1.03
2023-01-09T22:04:32.329Z,1.23
2023-01-09T22:07:00.293Z,2.17
2023-01-09T22:09:28.287Z,0.77
2023-01-09T22:11:57.828Z,1.10
2023-01-09T22:14:25.519Z,0.77
2023-01-09T22:16:55.527Z,1.63
2023-01-09T22:19:23.191Z,1.20
2023-01-09T22:21:51.219Z,1.20
2023-01-09T22:24:21.609Z,0.93
2023-01-09T22:26:50.113Z,2.40
2023-01-09T22:29:18.137Z,1.47
2023-01-09T22:31:46.038Z,0.53
2023-01-09T22:34:18.304Z,1.13
2023-01-09T22:36:47.853Z,0.67
2023-01-09T22:39:19.348Z,0.77
2023-01-09T22:41:51.905Z,0.67
2023-01-09T22:44:19.580Z,0.73
2023-01-09T22:46:47.942Z,0.97
2023-01-09T22:49:16.963Z,0.70
2023-01-09T22:51:45.104Z,1.17
2023-01-09T22:54:12.741Z,0.50
2023-01-09T22:56:40.752Z,1.97
2023-01-09T22:59:08.630Z,0.70
2023-01-09T23:01:36.890Z,1.27
2023-01-09T23:04:04.889Z,0.80
2023-01-09T23:06:34.274Z,1.20
2023-01-09T23:09:01.906Z,0.70
2023-01-09T23:11:49.828Z,1.97
2023-01-09T23:14:17.688Z,0.60
2023-01-09T23:16:45.783Z,2.30
2023-01-09T23:19:15.565Z,0.70
2023-01-09T23:21:46.463Z,0.80
2023-01-09T23:24:15.412Z,5.73
2023-01-09T23:26:43.598Z,0.70
2023-01-09T23:29:12.376Z,0.87
2023-01-09T23:31:40.166Z,1.13
2023-01-09T23:34:08.267Z,1.23
2023-01-09T23:36:36.144Z,0.63
2023-01-09T23:39:08.857Z,0.57
2023-01-09T23:41:54.679Z,0.90
2023-01-09T23:44:22.574Z,0.50
2023-01-09T23:46:50.283Z,0.53
2023-01-09T23:49:18.248Z,0.30
2023-01-09T23:51:46.740Z,0.77
2023-01-09T23:54:16.259Z,0.83
2023-01-09T23:56:44.215Z,0.77
2023-01-09T23:59:13.797Z,0.27
